Time;durP1;ratioP1;P1;durP2;ratioP2;P2;SDS_P1;SDS_P2;PMS_P1;PMS_P2;Temp;Humidity;BMP_temperature;BMP_pressure;BME280_temperature;BME280_humidity;BME280_pressure;Samples;Min_cycle;Max_cycle;Signal;HPM_P1;HPM_P2
2023/06/14 00:00:34;;;;;;;10.43;4.82;;;;;;;18.71;49.67;100577.88;4995032;28;20034;-93
2023/06/14 00:03:00;;;;;;;7.55;4.50;;;;;;;18.69;49.76;100577.19;4994900;28;20023;-94
2023/06/14 00:05:26;;;;;;;10.60;4.30;;;;;;;18.69;49.55;100576.38;4993438;28;20023;-92
2023/06/14 00:07:53;;;;;;;9.05;4.30;;;;;;;18.62;49.65;100586.53;4994810;28;20385;-92
2023/06/14 00:10:19;;;;;;;8.32;4.55;;;;;;;18.62;49.80;100583.94;4992694;28;20049;-93
2023/06/14 00:12:44;;;;;;;7.82;3.95;;;;;;;18.56;50.01;100581.88;4994294;28;20389;-94
2023/06/14 00:15:10;;;;;;;7.20;4.30;;;;;;;18.60;49.79;100572.78;4994186;28;20019;-93
2023/06/14 00:17:36;;;;;;;5.80;4.07;;;;;;;18.51;50.25;100573.63;4993491;28;20038;-94
2023/06/14 00:20:05;;;;;;;6.57;4.28;;;;;;;18.42;50.58;100580.47;4993171;28;20489;-93
2023/06/14 00:22:31;;;;;;;5.95;4.35;;;;;;;18.35;50.70;100584.59;4994660;28;20057;-95
2023/06/14 00:24:57;;;;;;;6.30;4.68;;;;;;;18.27;51.40;100585.25;4994411;28;20026;-94
2023/06/14 00:27:22;;;;;;;9.60;4.63;;;;;;;18.28;51.26;100586.91;4993716;28;20030;-93
2023/06/14 00:29:47;;;;;;;11.70;4.78;;;;;;;18.26;51.59;100586.19;4994477;28;20030;-93
2023/06/14 00:32:13;;;;;;;9.57;4.93;;;;;;;18.14;51.99;100580.28;4993375;28;20061;-93
2023/06/14 00:34:38;;;;;;;6.13;4.35;;;;;;;18.09;52.45;100579.00;4993286;28;20494;-94
2023/06/14 00:37:04;;;;;;;11.50;4.38;;;;;;;18.16;51.86;100585.34;4993483;28;20050;-92
2023/06/14 00:39:29;;;;;;;6.78;4.00;;;;;;;18.03;52.32;100590.00;4994257;28;20038;-93
2023/06/14 00:41:54;;;;;;;9.05;4.03;;;;;;;18.00;52.54;100596.31;4994180;28;20030;-94
2023/06/14 00:44:21;;;;;;;5.07;4.22;;;;;;;17.99;52.80;100592.03;4993979;28;20034;-94
2023/06/14 00:46:47;;;;;;;10.30;4.88;;;;;;;17.81;53.46;100597.06;4992588;28;20381;-93
2023/06/14 00:49:15;;;;;;;10.70;4.65;;;;;;;17.83;53.37;100595.16;4993360;28;20073;-92
2023/06/14 00:51:41;;;;;;;7.57;4.65;;;;;;;17.75;53.60;100597.53;4994086;28;20026;-93
2023/06/14 00:54:07;;;;;;;7.70;4.78;;;;;;;17.61;54.15;100601.34;4993875;28;20066;-93
2023/06/14 00:56:32;;;;;;;10.88;4.63;;;;;;;17.53;54.37;100601.16;4992767;28;20081;-93
2023/06/14 00:58:58;;;;;;;7.43;3.83;;;;;;;17.47;54.62;100599.06;4993718;28;20034;-92
2023/06/14 01:01:24;;;;;;;9.52;4.20;;;;;;;17.45;54.23;100591.34;4993880;28;20030;-95
2023/06/14 01:03:51;;;;;;;11.15;4.15;;;;;;;17.31;54.85;100602.13;4993831;28;20045;-94
2023/06/14 01:06:44;;;;;;;6.72;4.70;;;;;;;17.22;55.26;100605.50;4992340;28;20022;-94
2023/06/14 01:09:18;;;;;;;11.18;4.10;;;;;;;17.17;55.12;100607.66;4993951;28;20101;-93
2023/06/14 01:12:15;;;;;;;7.05;4.13;;;;;;;17.18;54.54;100604.09;4992562;28;20086;-94
2023/06/14 01:14:41;;;;;;;9.70;3.63;;;;;;;17.04;54.62;100606.03;4993956;28;20034;-94
2023/06/14 01:17:15;;;;;;;6.35;4.05;;;;;;;17.07;54.60;100608.44;4992400;28;20154;-93
2023/06/14 01:19:42;;;;;;;6.28;3.58;;;;;;;16.98;54.47;100608.34;4993646;28;20387;-93
2023/06/14 01:22:08;;;;;;;9.95;4.25;;;;;;;16.94;53.89;100607.75;4991716;28;20041;-94
2023/06/14 01:24:34;;;;;;;13.27;3.88;;;;;;;16.94;53.02;100607.75;4990857;28;20456;-93
2023/06/14 01:27:02;;;;;;;9.13;4.20;;;;;;;16.89;52.72;100610.75;4990285;28;20449;-92
2023/06/14 01:29:32;;;;;;;7.00;3.83;;;;;;;16.89;52.03;100607.31;4993180;28;20101;-93
2023/06/14 01:31:58;;;;;;;7.22;3.75;;;;;;;16.89;51.61;100607.31;4992109;28;20034;-93
2023/06/14 01:34:24;;;;;;;8.27;3.63;;;;;;;16.87;51.10;100604.00;4993003;28;20031;-93
2023/06/14 01:36:50;;;;;;;5.32;2.97;;;;;;;16.87;50.91;100604.00;4992915;28;20026;-92
2023/06/14 01:39:17;;;;;;;7.25;3.40;;;;;;;16.74;51.33;100617.16;4992609;28;20026;-93
2023/06/14 01:41:45;;;;;;;8.35;3.53;;;;;;;16.73;51.37;100612.06;4993245;28;20023;-94
2023/06/14 01:44:13;;;;;;;6.53;3.30;;;;;;;16.62;51.00;100613.75;4992700;28;20026;-92
2023/06/14 01:46:40;;;;;;;8.18;3.65;;;;;;;16.62;50.94;100611.16;4991351;28;20045;-93
2023/06/14 01:49:07;;;;;;;5.38;3.45;;;;;;;16.47;51.07;100604.56;4991584;28;20571;-93
2023/06/14 01:51:32;;;;;;;4.88;3.13;;;;;;;16.44;51.95;100610.84;4992833;28;20054;-93
2023/06/14 01:53:57;;;;;;;7.35;4.03;;;;;;;16.33;52.60;100608.25;4991636;28;20053;-93
2023/06/14 01:56:23;;;;;;;10.20;4.53;;;;;;;16.38;52.93;100613.94;4991120;28;20385;-95
2023/06/14 01:58:49;;;;;;;8.15;3.55;;;;;;;16.24;53.10;100609.84;4991159;28;20030;-91
2023/06/14 02:01:16;;;;;;;5.65;3.88;;;;;;;16.18;53.22;100612.09;4992306;28;20026;-93
2023/06/14 02:03:42;;;;;;;6.45;3.42;;;;;;;16.12;53.78;100609.94;4992258;28;20030;-94
2023/06/14 02:06:07;;;;;;;10.82;3.05;;;;;;;16.15;52.90;100597.53;4991559;28;20224;-94
2023/06/14 02:08:33;;;;;;;8.07;3.58;;;;;;;16.08;52.73;100598.94;4989856;28;20502;-96
2023/06/14 02:10:58;;;;;;;5.50;3.20;;;;;;;16.00;52.22;100601.34;4990981;28;20037;-95
2023/06/14 02:13:23;;;;;;;5.75;3.50;;;;;;;16.05;52.23;100589.59;4992185;28;20096;-93
2023/06/14 02:15:52;;;;;;;6.53;3.58;;;;;;;16.07;51.82;100596.44;4992059;28;20030;-93
2023/06/14 02:18:18;;;;;;;9.60;3.83;;;;;;;15.91;52.04;100596.84;4990156;28;20126;-95
2023/06/14 02:20:43;;;;;;;7.03;3.30;;;;;;;15.89;52.03;100589.13;4990637;28;20113;-93
2023/06/14 02:23:09;;;;;;;6.90;3.45;;;;;;;15.89;52.00;100598.72;4992078;28;20469;-93
2023/06/14 02:25:34;;;;;;;6.65;3.63;;;;;;;15.75;51.70;100587.63;4990389;28;20034;-93
2023/06/14 02:28:00;;;;;;;13.80;3.38;;;;;;;15.71;52.00;100594.00;4991567;28;20034;-94
2023/06/14 02:30:25;;;;;;;10.88;3.22;;;;;;;15.68;52.21;100599.41;4991205;28;20365;-94
2023/06/14 02:32:51;;;;;;;8.88;3.80;;;;;;;15.63;51.62;100583.31;4992543;28;20034;-94
2023/06/14 02:35:16;;;;;;;7.50;3.30;;;;;;;15.58;51.79;100594.06;4989468;28;20034;-93
2023/06/14 02:37:42;;;;;;;5.97;2.90;;;;;;;15.55;51.38;100591.69;4973063;28;20031;-93
2023/06/14 02:40:08;;;;;;;6.38;3.00;;;;;;;15.53;51.39;100592.75;4971578;28;20034;-93
2023/06/14 02:42:34;;;;;;;4.35;2.92;;;;;;;15.53;51.02;100588.38;4971714;28;20057;-94
2023/06/14 02:45:00;;;;;;;7.90;3.25;;;;;;;15.45;51.03;100590.72;4973376;28;20057;-93
2023/06/14 02:47:25;;;;;;;6.80;3.47;;;;;;;15.44;50.96;100588.25;4978990;28;20030;-94
2023/06/14 02:49:51;;;;;;;9.43;3.08;;;;;;;15.36;50.73;100596.63;4990979;28;20145;-93
2023/06/14 02:52:16;;;;;;;8.45;3.70;;;;;;;15.38;51.36;100585.16;4992585;28;20026;-93
2023/06/14 02:54:41;;;;;;;3.70;2.83;;;;;;;15.38;51.34;100590.34;4992664;28;20018;-95
2023/06/14 02:57:07;;;;;;;7.15;3.00;;;;;;;15.43;52.08;100591.78;4993618;28;20496;-94
2023/06/14 02:59:34;;;;;;;4.38;2.83;;;;;;;15.39;51.69;100586.00;4995490;28;20485;-94
2023/06/14 03:01:59;;;;;;;4.85;3.00;;;;;;;15.27;52.18;100589.53;4994898;28;20085;-94
2023/06/14 03:04:25;;;;;;;6.75;3.25;;;;;;;15.21;52.32;100593.38;4995966;28;20408;-94
2023/06/14 03:06:53;;;;;;;5.85;2.70;;;;;;;15.18;51.64;100593.63;4993717;28;20500;-94
2023/06/14 03:09:18;;;;;;;10.68;3.60;;;;;;;15.12;51.26;100609.69;4994820;28;20089;-94
2023/06/14 03:11:44;;;;;;;4.95;2.63;;;;;;;15.04;52.24;100609.41;4993307;28;20026;-95
2023/06/14 03:14:11;;;;;;;4.75;2.95;;;;;;;15.14;51.16;100607.78;4990993;28;20038;-94
2023/06/14 03:16:37;;;;;;;5.53;2.88;;;;;;;15.13;51.91;100612.16;4983298;28;20496;-94
2023/06/14 03:19:02;;;;;;;6.95;2.92;;;;;;;14.98;51.86;100608.91;4993859;28;20026;-94
2023/06/14 03:21:28;;;;;;;4.25;2.70;;;;;;;14.95;51.84;100606.56;4995526;28;20026;-94
2023/06/14 03:23:53;;;;;;;6.22;3.88;;;;;;;14.92;53.02;100609.38;4993676;28;20026;-93
2023/06/14 03:26:19;;;;;;;9.07;2.70;;;;;;;14.84;52.54;100616.88;4994873;28;20034;-94
2023/06/14 03:28:45;;;;;;;10.52;2.70;;;;;;;14.83;52.53;100614.41;4992641;28;20038;-93
2023/06/14 03:31:11;;;;;;;2.75;2.30;;;;;;;14.83;53.69;100615.25;4994532;28;20140;-94
2023/06/14 03:33:37;;;;;;;6.72;3.33;;;;;;;14.70;54.90;100614.44;4995554;28;20060;-94
2023/06/14 03:36:03;;;;;;;8.60;3.20;;;;;;;14.63;55.78;100616.69;4994268;28;20058;-94
2023/06/14 03:38:28;;;;;;;5.57;3.55;;;;;;;14.57;56.73;100614.50;4994657;28;20030;-94
2023/06/14 03:40:53;;;;;;;6.15;3.38;;;;;;;14.56;57.00;100612.88;4994253;28;20432;-94
2023/06/14 03:43:19;;;;;;;8.10;3.17;;;;;;;14.43;56.94;100612.84;4995459;28;20531;-94
2023/06/14 03:45:44;;;;;;;6.28;3.00;;;;;;;14.29;57.44;100606.06;4995777;28;20031;-93
2023/06/14 03:48:10;;;;;;;13.40;3.72;;;;;;;14.18;57.34;100618.13;4995259;28;20468;-93
2023/06/14 03:50:37;;;;;;;8.38;2.90;;;;;;;14.14;56.61;100612.28;4993950;28;20022;-94
2023/06/14 03:53:03;;;;;;;10.48;3.35;;;;;;;14.17;56.55;100616.44;4995347;28;20022;-94
2023/06/14 03:55:31;;;;;;;6.57;2.60;;;;;;;14.13;56.22;100608.88;4993293;28;20513;-95
2023/06/14 03:57:56;;;;;;;9.57;3.17;;;;;;;13.99;56.24;100609.00;4993771;28;20034;-93
2023/06/14 04:00:22;;;;;;;6.97;3.45;;;;;;;13.91;57.13;100612.13;4993985;28;20030;-94
2023/06/14 04:02:47;;;;;;;6.28;3.80;;;;;;;13.79;57.85;100612.97;4993851;28;20093;-94
2023/06/14 04:05:16;;;;;;;9.98;4.18;;;;;;;13.78;57.99;100621.69;4994989;28;20026;-92
2023/06/14 04:07:44;;;;;;;9.68;3.90;;;;;;;13.75;57.57;100627.06;4994255;28;20473;-94
2023/06/14 04:10:11;;;;;;;10.05;3.10;;;;;;;13.80;57.78;100634.53;4993773;28;20027;-94
2023/06/14 04:12:36;;;;;;;13.20;3.53;;;;;;;13.90;57.83;100636.44;4993102;28;20026;-94
2023/06/14 04:15:02;;;;;;;5.75;3.30;;;;;;;13.78;57.77;100626.88;4994807;28;20026;-94
2023/06/14 04:17:28;;;;;;;6.93;2.67;;;;;;;13.78;58.18;100633.84;4994856;28;20034;-94
2023/06/14 04:19:53;;;;;;;6.90;3.03;;;;;;;13.65;58.86;100632.03;4993364;28;20085;-93
2023/06/14 04:22:19;;;;;;;10.13;3.47;;;;;;;13.43;59.08;100624.06;4993698;28;20109;-94
2023/06/14 04:24:44;;;;;;;8.27;3.20;;;;;;;13.61;58.68;100633.22;4994602;28;20025;-95
2023/06/14 04:27:09;;;;;;;8.27;3.55;;;;;;;13.54;59.03;100649.28;4993641;28;20116;-95
2023/06/14 04:29:35;;;;;;;7.03;2.78;;;;;;;13.56;59.42;100637.88;4994010;28;20030;-94
2023/06/14 04:32:01;;;;;;;8.95;3.20;;;;;;;13.34;60.83;100645.41;4994631;28;20041;-93
2023/06/14 04:34:32;;;;;;;6.75;2.95;;;;;;;13.21;62.17;100648.75;4993333;28;20038;-95
2023/06/14 04:36:59;;;;;;;6.87;2.40;;;;;;;13.26;62.19;100641.53;4994002;28;20033;-93
2023/06/14 04:39:25;;;;;;;8.07;3.00;;;;;;;13.26;62.69;100651.91;4992289;28;20785;-94
2023/06/14 04:41:52;;;;;;;7.07;2.95;;;;;;;13.14;64.47;100647.50;4994105;28;20022;-94
2023/06/14 04:44:19;;;;;;;5.20;2.58;;;;;;;13.24;65.24;100653.75;4994357;28;20485;-94
2023/06/14 04:46:47;;;;;;;6.35;2.85;;;;;;;13.00;66.17;100652.75;4992479;28;20499;-93
2023/06/14 04:49:16;;;;;;;11.15;2.78;;;;;;;13.06;66.90;100657.53;4991922;28;20396;-93
2023/06/14 04:51:43;;;;;;;7.07;3.05;;;;;;;12.97;67.77;100650.34;4991961;28;20034;-94
2023/06/14 04:54:14;;;;;;;10.15;3.70;;;;;;;13.05;68.00;100648.94;4992850;28;20073;-95
2023/06/14 04:56:42;;;;;;;7.57;2.65;;;;;;;13.01;68.31;100636.28;4993941;28;20501;-95
2023/06/14 04:59:07;;;;;;;6.32;3.13;;;;;;;12.98;69.01;100641.66;4994040;28;20088;-95
2023/06/14 05:01:34;;;;;;;8.07;3.30;;;;;;;12.98;69.38;100649.44;4993068;28;20030;-93
2023/06/14 05:03:59;;;;;;;11.18;3.28;;;;;;;12.91;69.74;100646.41;4993071;28;20032;-92
2023/06/14 05:06:27;;;;;;;9.63;3.88;;;;;;;12.85;71.03;100642.44;4992621;28;20018;-95
2023/06/14 05:08:53;;;;;;;5.30;3.20;;;;;;;13.03;70.58;100644.78;4992310;28;20097;-93
2023/06/14 05:11:18;;;;;;;4.82;2.72;;;;;;;13.01;70.65;100649.22;4992514;28;20031;-93
2023/06/14 05:13:44;;;;;;;6.38;3.20;;;;;;;12.90;71.38;100655.09;4993924;28;20030;-94
2023/06/14 05:16:11;;;;;;;5.60;3.03;;;;;;;12.87;72.05;100654.44;4994024;28;20150;-93
2023/06/14 05:18:37;;;;;;;7.00;2.97;;;;;;;12.99;71.69;100651.06;4992500;28;20400;-93
2023/06/14 05:21:04;;;;;;;10.25;3.80;;;;;;;12.91;72.33;100666.28;4993035;28;20022;-93
2023/06/14 05:23:30;;;;;;;8.65;2.60;;;;;;;12.90;72.38;100652.50;4992915;28;20053;-94
2023/06/14 05:25:56;;;;;;;12.43;3.63;;;;;;;13.01;73.16;100654.41;4993956;28;20465;-94
2023/06/14 05:28:22;;;;;;;5.15;2.80;;;;;;;13.03;72.64;100660.31;4993433;28;20122;-94
2023/06/14 05:30:47;;;;;;;9.10;3.13;;;;;;;13.07;72.77;100656.63;4992068;28;20109;-93
2023/06/14 05:33:13;;;;;;;5.50;2.92;;;;;;;13.01;73.02;100659.59;5008716;28;20034;-93
2023/06/14 05:35:38;;;;;;;10.30;3.45;;;;;;;13.24;72.13;100648.56;4993646;28;20037;-94
2023/06/14 05:38:03;;;;;;;7.10;3.35;;;;;;;13.08;72.74;100653.09;4992785;28;20172;-93
2023/06/14 05:40:29;;;;;;;9.05;4.03;;;;;;;13.06;72.87;100649.75;4993131;28;20420;-94
2023/06/14 05:42:54;;;;;;;14.32;3.35;;;;;;;13.06;72.97;100649.75;4993274;28;20041;-93
2023/06/14 05:45:20;;;;;;;10.80;3.35;;;;;;;13.13;73.89;100661.38;4991955;28;20029;-94
2023/06/14 05:47:45;;;;;;;9.60;4.05;;;;;;;13.16;73.11;100655.19;4991897;28;20109;-93
2023/06/14 05:50:11;;;;;;;7.38;2.90;;;;;;;13.17;73.54;100662.03;4993266;28;20023;-94
2023/06/14 05:52:36;;;;;;;6.07;2.95;;;;;;;13.21;73.57;100663.47;4992204;28;20026;-94
2023/06/14 05:55:03;;;;;;;6.57;2.70;;;;;;;13.37;73.76;100668.53;4981378;28;20022;-94
2023/06/14 05:57:28;;;;;;;6.03;2.83;;;;;;;13.42;73.23;100661.28;4988958;28;20034;-94
2023/06/14 05:59:54;;;;;;;7.78;3.10;;;;;;;13.47;73.83;100665.22;4990769;28;20496;-93
2023/06/14 06:02:20;;;;;;;13.88;3.40;;;;;;;13.56;72.90;100669.00;4990758;28;20044;-93
2023/06/14 06:04:45;;;;;;;6.20;2.92;;;;;;;13.79;72.67;100664.03;4992511;28;20392;-93
2023/06/14 06:07:10;;;;;;;5.40;2.50;;;;;;;13.98;71.77;100667.03;4989473;28;20038;-93
2023/06/14 06:09:36;;;;;;;8.48;3.38;;;;;;;14.78;69.49;100679.72;4991987;28;20030;-95
2023/06/14 06:12:01;;;;;;;6.00;3.25;;;;;;;18.67;55.88;100683.69;4992548;28;20604;-95
2023/06/14 06:14:27;;;;;;;8.40;3.13;;;;;;;21.15;49.11;100682.63;4992130;28;20034;-96
2023/06/14 06:16:53;;;;;;;8.35;3.00;;;;;;;22.45;45.05;100684.44;4991117;28;20069;-95
2023/06/14 06:19:18;;;;;;;10.90;2.97;;;;;;;22.84;43.79;100681.22;4989257;28;20420;-95
2023/06/14 06:21:44;;;;;;;10.00;2.10;;;;;;;23.86;42.01;100689.66;4991414;28;20178;-95
2023/06/14 06:24:09;;;;;;;7.65;2.58;;;;;;;24.03;41.19;100690.44;4992959;28;20027;-95
2023/06/14 06:26:34;;;;;;;7.85;2.50;;;;;;;25.45;38.80;100696.38;4992614;28;20033;-96
2023/06/14 06:29:00;;;;;;;6.88;2.63;;;;;;;25.15;39.28;100689.16;4987084;28;20366;-95
2023/06/14 06:31:27;;;;;;;8.70;2.63;;;;;;;24.71;40.07;100700.38;4990290;28;20397;-95
2023/06/14 06:33:54;;;;;;;7.20;2.70;;;;;;;24.90;39.71;100701.75;4991152;28;20030;-94
2023/06/14 06:36:20;;;;;;;6.32;2.20;;;;;;;25.77;38.55;100700.53;4993405;28;20097;-95
2023/06/14 06:38:46;;;;;;;11.75;2.80;;;;;;;27.07;36.29;100699.91;4990752;28;20069;-96
2023/06/14 06:41:11;;;;;;;9.80;2.38;;;;;;;26.60;36.63;100694.09;4990122;28;20057;-94
2023/06/14 06:43:36;;;;;;;9.25;2.53;;;;;;;27.09;35.70;100701.34;4991558;28;20034;-95
2023/06/14 06:46:02;;;;;;;8.50;2.58;;;;;;;26.20;37.43;100696.25;4989873;28;20042;-95
2023/06/14 06:48:28;;;;;;;8.32;2.55;;;;;;;28.04;34.56;100693.88;4990366;28;20023;-96
2023/06/14 06:50:53;;;;;;;5.88;2.60;;;;;;;27.57;35.50;100692.75;4991068;28;20029;-95
2023/06/14 06:53:19;;;;;;;5.07;2.00;;;;;;;28.93;33.50;100692.97;4985957;28;20030;-95
2023/06/14 06:55:44;;;;;;;6.97;2.33;;;;;;;28.78;33.87;100693.16;5007414;28;20109;-96
2023/06/14 06:58:10;;;;;;;9.80;2.53;;;;;;;28.80;33.28;100687.66;4993122;28;20477;-96
2023/06/14 07:00:35;;;;;;;6.72;2.33;;;;;;;28.26;34.54;100696.44;4992146;28;20026;-96
2023/06/14 07:03:01;;;;;;;7.68;2.42;;;;;;;29.43;32.31;100693.41;4993041;28;20034;-95
2023/06/14 07:05:26;;;;;;;6.40;2.40;;;;;;;29.01;32.75;100700.72;4993249;28;20408;-96
2023/06/14 07:07:52;;;;;;;5.95;2.45;;;;;;;28.02;34.36;100698.59;4995279;28;20060;-96
2023/06/14 07:10:19;;;;;;;12.45;3.28;;;;;;;28.36;34.05;100697.72;4994939;28;20058;-96
2023/06/14 07:12:44;;;;;;;7.55;2.20;;;;;;;27.88;34.71;100688.91;4996768;28;20077;-95
2023/06/14 07:15:10;;;;;;;10.32;2.53;;;;;;;29.03;33.03;100693.38;4993534;28;20404;-95
2023/06/14 07:17:36;;;;;;;7.90;2.40;;;;;;;27.64;35.36;100698.13;4991543;28;20027;-96
2023/06/14 07:20:11;;;;;;;7.97;2.70;;;;;;;26.97;35.97;100697.56;4992275;28;20451;-95
2023/06/14 07:22:37;;;;;;;8.52;2.45;;;;;;;26.69;36.82;100703.59;4992263;28;20077;-95
2023/06/14 07:25:02;;;;;;;6.10;2.42;;;;;;;27.26;36.17;100693.13;4992797;28;20493;-96
2023/06/14 07:27:28;;;;;;;13.15;2.58;;;;;;;29.06;33.28;100702.81;4987573;28;20031;-96
2023/06/14 07:29:53;;;;;;;7.78;2.30;;;;;;;28.10;34.25;100708.22;4992397;28;20033;-96
2023/06/14 07:32:19;;;;;;;11.32;2.70;;;;;;;27.47;35.67;100706.34;4991994;28;20037;-94
2023/06/14 07:34:45;;;;;;;9.15;2.28;;;;;;;28.36;33.63;100707.50;4996558;28;20025;-95
2023/06/14 07:37:10;;;;;;;7.72;2.10;;;;;;;28.21;34.64;100704.97;5008183;28;20022;-95
2023/06/14 07:39:36;;;;;;;8.50;2.47;;;;;;;27.32;35.25;100703.78;4983079;28;20038;-94
2023/06/14 07:42:01;;;;;;;6.25;2.40;;;;;;;28.04;35.22;100708.97;4973385;28;20474;-95
2023/06/14 07:44:31;;;;;;;6.80;1.90;;;;;;;28.04;34.36;100703.69;4976597;28;20073;-95
2023/06/14 07:46:58;;;;;;;5.53;1.80;;;;;;;27.86;33.86;100707.66;4978554;28;20090;-96
2023/06/14 07:49:23;;;;;;;6.88;2.25;;;;;;;28.61;33.98;100705.16;4997497;28;20033;-96
2023/06/14 07:51:50;;;;;;;6.05;1.85;;;;;;;28.75;33.30;100701.53;5000196;28;20027;-95
2023/06/14 07:54:16;;;;;;;4.93;2.00;;;;;;;28.12;34.75;100708.84;4999856;28;20509;-96
2023/06/14 07:56:42;;;;;;;4.55;2.00;;;;;;;27.79;35.37;100705.97;5014271;28;20117;-96
2023/06/14 07:59:07;;;;;;;7.28;2.35;;;;;;;28.45;33.82;100709.00;5017039;28;20037;-96
2023/06/14 08:01:33;;;;;;;6.18;2.15;;;;;;;28.15;34.74;100706.59;5017035;28;20034;-96
2023/06/14 08:03:59;;;;;;;13.38;2.78;;;;;;;28.09;34.63;100702.09;5009335;28;20112;-96
2023/06/14 08:06:24;;;;;;;4.78;2.03;;;;;;;27.87;35.02;100704.03;4993898;28;20480;-96
2023/06/14 08:08:50;;;;;;;6.65;2.55;;;;;;;28.36;33.98;100712.78;4997797;28;20050;-96
2023/06/14 08:11:15;;;;;;;5.85;2.33;;;;;;;28.33;33.32;100713.19;4995032;28;20066;-95
2023/06/14 08:13:41;;;;;;;6.30;1.70;;;;;;;28.50;33.69;100708.41;4992785;28;20040;-96
2023/06/14 08:16:06;;;;;;;11.38;2.00;;;;;;;28.77;32.42;100703.97;5011948;28;20014;-96
2023/06/14 08:18:32;;;;;;;5.57;1.98;;;;;;;28.31;33.25;100709.91;5014927;28;20404;-96
2023/06/14 08:20:57;;;;;;;3.78;1.55;;;;;;;27.69;33.32;100704.47;5017979;28;20092;-96
2023/06/14 08:23:23;;;;;;;10.82;2.00;;;;;;;28.37;32.84;100704.66;5002969;28;20049;-96
2023/06/14 08:25:49;;;;;;;5.40;1.67;;;;;;;28.21;33.79;100704.16;5009113;28;20033;-95
2023/06/14 08:28:14;;;;;;;5.22;1.88;;;;;;;28.57;32.68;100718.00;5020381;28;20369;-96
2023/06/14 08:30:40;;;;;;;3.92;1.67;;;;;;;28.80;32.70;100700.94;5016942;28;20146;-96
2023/06/14 08:33:05;;;;;;;3.65;1.70;;;;;;;28.62;33.06;100700.66;4998495;28;20072;-95
2023/06/14 08:35:37;;;;;;;4.10;1.70;;;;;;;29.42;31.94;100707.72;5005139;28;20030;-96
2023/06/14 08:38:03;;;;;;;;;;;;;;;28.28;32.83;100702.38;5009770;28;20026;-96
2023/06/14 08:40:30;;;;;;;6.80;1.63;;;;;;;28.56;32.43;100695.16;5004362;28;19937;-96
2023/06/14 08:42:55;;;;;;;5.63;2.10;;;;;;;28.96;30.53;100703.19;5087363;23;20053;-96
2023/06/14 08:45:22;;;;;;;5.93;2.38;;;;;;;28.42;31.23;100712.03;5008479;28;20027;-96
2023/06/14 08:47:51;;;;;;;6.28;2.22;;;;;;;28.58;30.20;100709.03;4997855;28;20030;-96
2023/06/14 08:50:21;;;;;;;8.60;2.38;;;;;;;28.05;31.75;100700.84;5005166;28;20022;-95
2023/06/14 08:52:52;;;;;;;5.43;1.50;;;;;;;28.94;31.74;100697.25;4992685;28;20032;-95
2023/06/14 08:55:19;;;;;;;5.90;1.75;;;;;;;29.42;29.71;100701.59;4990716;28;20049;-96
2023/06/14 08:57:47;;;;;;;6.20;1.73;;;;;;;29.41;27.58;100706.09;4988075;28;20039;-95
2023/06/14 09:00:14;;;;;;;3.25;1.65;;;;;;;29.07;29.94;100711.59;4991561;28;20046;-95
2023/06/14 09:02:43;;;;;;;5.63;1.40;;;;;;;29.31;29.78;100704.84;4992113;28;20026;-95
2023/06/14 09:05:10;;;;;;;7.50;1.85;;;;;;;29.72;29.27;100709.16;4991599;28;20058;-96
2023/06/14 09:07:38;;;;;;;8.18;2.03;;;;;;;30.00;29.08;100711.56;4992720;28;20052;-95
2023/06/14 09:10:11;;;;;;;3.45;1.40;;;;;;;30.01;29.64;100715.84;4991149;28;20018;-95
2023/06/14 09:12:37;;;;;;;9.07;1.80;;;;;;;29.70;29.11;100713.84;4988846;28;20027;-95
2023/06/14 09:15:05;;;;;;;8.98;1.63;;;;;;;30.23;30.03;100719.03;5008223;28;20037;-95
2023/06/14 09:17:37;;;;;;;9.93;1.80;;;;;;;29.93;29.35;100724.06;4989236;28;20464;-95
2023/06/14 09:20:06;;;;;;;4.00;1.70;;;;;;;29.95;28.72;100714.84;4989114;28;20410;-95
2023/06/14 09:22:33;;;;;;;7.53;1.77;;;;;;;30.92;28.75;100714.81;4992324;28;20473;-95
2023/06/14 09:24:59;;;;;;;5.25;1.60;;;;;;;31.07;27.32;100714.53;4990810;28;20486;-96
2023/06/14 09:27:28;;;;;;;3.72;1.73;;;;;;;30.85;29.62;100711.41;4990987;28;20044;-95
2023/06/14 09:29:54;;;;;;;5.32;1.70;;;;;;;30.83;27.03;100713.47;4992044;28;20125;-96
2023/06/14 09:32:20;;;;;;;6.35;1.50;;;;;;;31.63;26.11;100712.81;4991489;28;20101;-95
2023/06/14 09:34:46;;;;;;;7.25;1.63;;;;;;;30.86;25.49;100716.50;4991093;28;20085;-95
2023/06/14 09:37:12;;;;;;;5.70;1.50;;;;;;;31.02;27.21;100717.84;4986908;28;20423;-96
2023/06/14 09:39:50;;;;;;;8.20;1.67;;;;;;;31.27;26.48;100711.69;4986508;28;20409;-95
2023/06/14 09:42:19;;;;;;;4.53;1.58;;;;;;;31.39;26.14;100707.31;4991504;28;20096;-96
2023/06/14 09:44:49;;;;;;;3.13;1.20;;;;;;;30.64;27.83;100716.00;4971790;28;20027;-96
2023/06/14 09:47:18;;;;;;;5.00;1.60;;;;;;;31.35;26.96;100706.06;4988350;28;20488;-96
2023/06/14 09:49:44;;;;;;;3.95;1.80;;;;;;;31.39;25.65;100719.81;4990290;28;20545;-95
2023/06/14 09:52:17;;;;;;;5.75;1.40;;;;;;;30.84;27.83;100715.09;4989832;28;20105;-94
2023/06/14 09:54:46;;;;;;;3.60;1.65;;;;;;;31.49;27.69;100718.28;4990144;28;20033;-96
2023/06/14 09:57:12;;;;;;;5.05;1.60;;;;;;;31.89;26.75;100715.22;4990106;28;20034;-95
2023/06/14 09:59:42;;;;;;;3.70;1.60;;;;;;;32.62;27.37;100721.56;4990281;28;20846;-95
2023/06/14 10:02:28;;;;;;;7.10;2.00;;;;;;;32.50;26.71;100718.84;4991817;28;20102;-94
2023/06/14 10:05:11;;;;;;;7.05;1.65;;;;;;;32.67;25.17;100723.56;4988622;28;20420;-95
2023/06/14 10:07:48;;;;;;;6.22;1.60;;;;;;;31.80;26.17;100719.22;4985895;28;20496;-96
2023/06/14 10:10:14;;;;;;;4.57;1.80;;;;;;;32.57;26.33;100700.06;4989434;28;20496;-94
2023/06/14 10:12:40;;;;;;;5.35;1.80;;;;;;;32.44;25.46;100713.56;4991295;28;20061;-94
2023/06/14 10:15:08;;;;;;;3.60;1.67;;;;;;;31.65;25.87;100716.09;4989655;28;20022;-94
2023/06/14 10:17:45;;;;;;;3.72;1.48;;;;;;;32.30;26.66;100723.59;4994058;28;20045;-95
2023/06/14 10:20:30;;;;;;;3.25;1.33;;;;;;;32.24;25.76;100725.34;4987532;28;20026;-95
2023/06/14 10:23:10;;;;;;;4.90;1.60;;;;;;;31.83;26.64;100713.44;4988852;28;20018;-95
2023/06/14 10:25:35;;;;;;;5.78;1.60;;;;;;;31.72;26.38;100716.84;4989578;28;20026;-96
2023/06/14 10:28:24;;;;;;;5.65;1.70;;;;;;;32.13;27.08;100720.72;4989401;28;20121;-95
2023/06/14 10:31:09;;;;;;;5.80;1.70;;;;;;;32.91;25.15;100713.75;4990959;28;20058;-95
2023/06/14 10:34:05;;;;;;;2.78;1.45;;;;;;;32.60;24.39;100718.28;4986924;28;20026;-96
2023/06/14 10:36:31;;;;;;;7.88;1.67;;;;;;;32.10;25.00;100721.19;4973482;28;20472;-95
2023/06/14 10:39:19;;;;;;;6.15;2.28;;;;;;;32.05;26.40;100713.03;4990098;28;20165;-95
2023/06/14 10:41:55;;;;;;;5.07;1.92;;;;;;;31.84;25.55;100714.25;4989248;28;20014;-95
2023/06/14 10:44:21;;;;;;;2.92;1.60;;;;;;;31.58;25.55;100699.31;4993757;28;20068;-95
2023/06/14 10:46:47;;;;;;;3.67;1.85;;;;;;;32.59;25.39;100696.09;4991415;28;20473;-96
2023/06/14 10:49:18;;;;;;;14.20;2.20;;;;;;;32.78;25.54;100691.53;4989860;28;20018;-95
2023/06/14 10:51:49;;;;;;;4.13;1.67;;;;;;;32.83;25.56;100693.50;4989880;28;20122;-94
2023/06/14 10:54:15;;;;;;;7.78;1.90;;;;;;;32.96;25.74;100692.47;4991281;28;20026;-96
2023/06/14 10:56:48;;;;;;;6.57;2.20;;;;;;;33.15;24.67;100690.56;4989380;28;20026;-93
2023/06/14 10:59:15;;;;;;;4.63;1.25;;;;;;;32.71;25.75;100698.81;4989751;28;20030;-94
2023/06/14 11:02:14;;;;;;;10.70;1.83;;;;;;;32.92;24.67;100699.31;4989023;28;20058;-94
2023/06/14 11:04:51;;;;;;;5.88;1.73;;;;;;;33.33;24.29;100701.13;4990449;28;20026;-93
2023/06/14 11:07:23;;;;;;;3.72;1.40;;;;;;;33.04;24.00;100694.84;4990497;28;20488;-94
2023/06/14 11:09:48;;;;;;;3.58;1.63;;;;;;;32.98;25.15;100693.06;4989521;28;20018;-94
2023/06/14 11:12:15;;;;;;;3.72;1.60;;;;;;;34.10;24.78;100684.91;4991148;28;20373;-94
2023/06/14 11:14:40;;;;;;;4.93;2.28;;;;;;;33.95;23.74;100689.94;4986782;28;20281;-94
2023/06/14 11:17:06;;;;;;;4.53;1.85;;;;;;;34.41;24.45;100684.66;4991104;28;20173;-94
2023/06/14 11:19:31;;;;;;;9.88;2.63;;;;;;;34.24;22.68;100679.28;4993868;28;20073;-95
2023/06/14 11:21:57;;;;;;;3.55;1.50;;;;;;;34.49;23.11;100677.03;4994548;28;20532;-94
2023/06/14 11:24:22;;;;;;;3.17;1.60;;;;;;;34.62;22.25;100675.16;4993843;28;20392;-95